sensor_id;sensor_type;location;lat;lon;timestamp;pressure;altitude;pressure_sealevel;temperature;humidity
36964;BME280;22878;48.616;35.326;2023-02-18T00:00:08;101217.08;;;-1.08;100.00
36964;BME280;22878;48.616;35.326;2023-02-18T00:02:34;101214.38;;;-1.10;100.00
36964;BME280;22878;48.616;35.326;2023-02-18T00:04:59;101214.56;;;-1.12;100.00
36964;BME280;22878;48.616;35.326;2023-02-18T00:07:25;101216.79;;;-1.13;100.00
36964;BME280;22878;48.616;35.326;2023-02-18T00:09:51;101217.13;;;-1.15;100.00
36964;BME280;22878;48.616;35.326;2023-02-18T00:12:16;101213.55;;;-1.14;100.00
36964;BME280;22878;48.616;35.326;2023-02-18T00:14:42;101204.87;;;-1.14;100.00
36964;BME280;22878;48.616;35.326;2023-02-18T00:17:07;101190.52;;;-1.15;100.00
36964;BME280;22878;48.616;35.326;2023-02-18T00:19:33;101173.86;;;-1.14;100.00
36964;BME280;22878;48.616;35.326;2023-02-18T00:21:58;101171.35;;;-1.19;100.00
36964;BME280;22878;48.616;35.326;2023-02-18T00:24:24;101167.06;;;-1.19;100.00
36964;BME280;22878;48.616;35.326;2023-02-18T00:26:51;101160.91;;;-1.18;100.00
36964;BME280;22878;48.616;35.326;2023-02-18T00:29:17;101174.01;;;-1.20;100.00
36964;BME280;22878;48.616;35.326;2023-02-18T00:31:42;101167.48;;;-1.22;100.00
36964;BME280;22878;48.616;35.326;2023-02-18T00:34:09;101154.04;;;-1.23;100.00
36964;BME280;22878;48.616;35.326;2023-02-18T00:36:35;101156.20;;;-1.26;100.00
36964;BME280;22878;48.616;35.326;2023-02-18T00:39:02;101160.27;;;-1.30;100.00
36964;BME280;22878;48.616;35.326;2023-02-18T00:41:29;101146.35;;;-1.31;100.00
36964;BME280;22878;48.616;35.326;2023-02-18T00:43:55;101141.60;;;-1.31;100.00
36964;BME280;22878;48.616;35.326;2023-02-18T00:46:22;101131.33;;;-1.31;100.00
36964;BME280;22878;48.616;35.326;2023-02-18T00:48:48;101119.69;;;-1.31;100.00
36964;BME280;22878;48.616;35.326;2023-02-18T00:51:13;101114.23;;;-1.31;100.00
36964;BME280;22878;48.616;35.326;2023-02-18T00:53:39;101106.11;;;-1.29;100.00
36964;BME280;22878;48.616;35.326;2023-02-18T00:56:05;101105.21;;;-1.31;100.00
36964;BME280;22878;48.616;35.326;2023-02-18T00:58:31;101100.48;;;-1.31;100.00
36964;BME280;22878;48.616;35.326;2023-02-18T01:00:57;101098.11;;;-1.33;100.00
36964;BME280;22878;48.616;35.326;2023-02-18T01:03:23;101095.84;;;-1.33;100.00
36964;BME280;22878;48.616;35.326;2023-02-18T01:05:50;101091.70;;;-1.33;100.00
36964;BME280;22878;48.616;35.326;2023-02-18T01:08:17;101089.44;;;-1.37;100.00
36964;BME280;22878;48.616;35.326;2023-02-18T01:10:45;101086.50;;;-1.37;100.00
36964;BME280;22878;48.616;35.326;2023-02-18T01:13:14;101088.55;;;-1.38;100.00
36964;BME280;22878;48.616;35.326;2023-02-18T01:15:41;101088.88;;;-1.40;100.00
36964;BME280;22878;48.616;35.326;2023-02-18T01:18:07;101094.42;;;-1.39;100.00
36964;BME280;22878;48.616;35.326;2023-02-18T01:20:35;101097.23;;;-1.37;100.00
36964;BME280;22878;48.616;35.326;2023-02-18T01:23:02;101094.98;;;-1.34;100.00
36964;BME280;22878;48.616;35.326;2023-02-18T01:25:27;101092.63;;;-1.33;100.00
36964;BME280;22878;48.616;35.326;2023-02-18T01:27:53;101095.73;;;-1.33;100.00
36964;BME280;22878;48.616;35.326;2023-02-18T01:30:18;101095.17;;;-1.33;100.00
36964;BME280;22878;48.616;35.326;2023-02-18T01:32:45;101092.17;;;-1.34;100.00
36964;BME280;22878;48.616;35.326;2023-02-18T01:35:13;101084.99;;;-1.39;100.00
36964;BME280;22878;48.616;35.326;2023-02-18T01:37:39;101082.15;;;-1.41;100.00
36964;BME280;22878;48.616;35.326;2023-02-18T01:40:06;101082.11;;;-1.44;100.00
36964;BME280;22878;48.616;35.326;2023-02-18T01:42:32;101079.88;;;-1.44;100.00
36964;BME280;22878;48.616;35.326;2023-02-18T01:48:09;101076.23;;;-1.40;100.00
36964;BME280;22878;48.616;35.326;2023-02-18T01:50:41;101072.46;;;-1.39;100.00
36964;BME280;22878;48.616;35.326;2023-02-18T01:53:08;101065.42;;;-1.39;100.00
36964;BME280;22878;48.616;35.326;2023-02-18T01:55:34;101055.80;;;-1.38;100.00
36964;BME280;22878;48.616;35.326;2023-02-18T01:58:01;101045.98;;;-1.40;100.00
36964;BME280;22878;48.616;35.326;2023-02-18T02:00:27;101033.64;;;-1.42;100.00
36964;BME280;22878;48.616;35.326;2023-02-18T02:02:53;101030.41;;;-1.44;100.00
36964;BME280;22878;48.616;35.326;2023-02-18T02:05:20;101022.83;;;-1.48;100.00
36964;BME280;22878;48.616;35.326;2023-02-18T02:07:48;101024.71;;;-1.47;100.00
36964;BME280;22878;48.616;35.326;2023-02-18T02:10:16;101027.22;;;-1.47;100.00
36964;BME280;22878;48.616;35.326;2023-02-18T02:15:35;101018.70;;;-1.47;100.00
36964;BME280;22878;48.616;35.326;2023-02-18T02:18:45;101020.77;;;-1.45;100.00
36964;BME280;22878;48.616;35.326;2023-02-18T02:24:36;101025.09;;;-1.36;100.00
36964;BME280;22878;48.616;35.326;2023-02-18T02:27:18;101009.48;;;-1.39;100.00
36964;BME280;22878;48.616;35.326;2023-02-18T02:29:57;101004.04;;;-1.39;100.00
36964;BME280;22878;48.616;35.326;2023-02-18T02:43:32;100987.04;;;-1.36;100.00
36964;BME280;22878;48.616;35.326;2023-02-18T02:46:34;100977.45;;;-1.34;100.00
36964;BME280;22878;48.616;35.326;2023-02-18T02:54:24;100974.28;;;-1.36;100.00
36964;BME280;22878;48.616;35.326;2023-02-18T02:57:08;100969.02;;;-1.36;100.00
36964;BME280;22878;48.616;35.326;2023-02-18T03:00:02;100967.21;;;-1.35;100.00
36964;BME280;22878;48.616;35.326;2023-02-18T03:05:44;100968.21;;;-1.32;100.00
36964;BME280;22878;48.616;35.326;2023-02-18T03:11:08;100961.14;;;-1.28;100.00
36964;BME280;22878;48.616;35.326;2023-02-18T03:14:02;100956.06;;;-1.27;100.00
36964;BME280;22878;48.616;35.326;2023-02-18T03:21:50;100946.15;;;-1.27;100.00
36964;BME280;22878;48.616;35.326;2023-02-18T03:24:19;100946.10;;;-1.25;100.00
36964;BME280;22878;48.616;35.326;2023-02-18T03:26:52;100944.74;;;-1.24;100.00
36964;BME280;22878;48.616;35.326;2023-02-18T03:29:18;100940.66;;;-1.22;100.00
36964;BME280;22878;48.616;35.326;2023-02-18T03:31:48;100928.08;;;-1.21;100.00
36964;BME280;22878;48.616;35.326;2023-02-18T03:34:20;100922.74;;;-1.21;100.00
36964;BME280;22878;48.616;35.326;2023-02-18T03:36:47;100924.44;;;-1.20;100.00
36964;BME280;22878;48.616;35.326;2023-02-18T03:39:16;100926.98;;;-1.20;100.00
36964;BME280;22878;48.616;35.326;2023-02-18T03:41:42;100923.70;;;-1.17;100.00
36964;BME280;22878;48.616;35.326;2023-02-18T03:44:08;100924.27;;;-1.16;100.00
36964;BME280;22878;48.616;35.326;2023-02-18T03:46:36;100917.73;;;-1.16;100.00
36964;BME280;22878;48.616;35.326;2023-02-18T03:49:02;100911.91;;;-1.14;100.00
36964;BME280;22878;48.616;35.326;2023-02-18T03:51:28;100907.52;;;-1.14;100.00
36964;BME280;22878;48.616;35.326;2023-02-18T03:53:53;100912.93;;;-1.14;100.00
36964;BME280;22878;48.616;35.326;2023-02-18T03:56:19;100919.77;;;-1.13;100.00
36964;BME280;22878;48.616;35.326;2023-02-18T03:58:45;100916.61;;;-1.10;100.00
36964;BME280;22878;48.616;35.326;2023-02-18T04:01:11;100911.14;;;-1.07;100.00
36964;BME280;22878;48.616;35.326;2023-02-18T04:03:37;100901.30;;;-1.05;100.00
36964;BME280;22878;48.616;35.326;2023-02-18T04:06:02;100902.65;;;-1.04;100.00
36964;BME280;22878;48.616;35.326;2023-02-18T04:08:28;100899.08;;;-1.01;100.00
36964;BME280;22878;48.616;35.326;2023-02-18T04:10:53;100896.57;;;-0.97;100.00
36964;BME280;22878;48.616;35.326;2023-02-18T04:13:19;100897.77;;;-0.97;100.00
36964;BME280;22878;48.616;35.326;2023-02-18T04:15:45;100891.83;;;-0.98;100.00
36964;BME280;22878;48.616;35.326;2023-02-18T04:18:13;100886.94;;;-0.98;100.00
36964;BME280;22878;48.616;35.326;2023-02-18T04:20:38;100887.72;;;-0.97;100.00
36964;BME280;22878;48.616;35.326;2023-02-18T04:23:04;100873.59;;;-0.95;100.00
36964;BME280;22878;48.616;35.326;2023-02-18T04:25:30;100860.96;;;-0.96;100.00
36964;BME280;22878;48.616;35.326;2023-02-18T04:27:55;100851.98;;;-0.96;100.00
36964;BME280;22878;48.616;35.326;2023-02-18T04:30:22;100838.61;;;-0.95;100.00
36964;BME280;22878;48.616;35.326;2023-02-18T04:32:48;100832.69;;;-0.94;100.00
36964;BME280;22878;48.616;35.326;2023-02-18T04:35:13;100822.70;;;-0.94;100.00
36964;BME280;22878;48.616;35.326;2023-02-18T04:37:39;100813.91;;;-0.96;100.00
36964;BME280;22878;48.616;35.326;2023-02-18T04:40:05;100807.41;;;-0.93;100.00
36964;BME280;22878;48.616;35.326;2023-02-18T04:42:31;100807.34;;;-0.93;100.00
36964;BME280;22878;48.616;35.326;2023-02-18T04:44:56;100807.96;;;-0.92;100.00
36964;BME280;22878;48.616;35.326;2023-02-18T04:47:22;100803.37;;;-0.92;100.00
36964;BME280;22878;48.616;35.326;2023-02-18T04:49:48;100796.77;;;-0.89;100.00
36964;BME280;22878;48.616;35.326;2023-02-18T04:52:13;100800.59;;;-0.89;100.00
36964;BME280;22878;48.616;35.326;2023-02-18T04:54:39;100804.10;;;-0.86;100.00
36964;BME280;22878;48.616;35.326;2023-02-18T04:57:04;100810.02;;;-0.85;100.00
36964;BME280;22878;48.616;35.326;2023-02-18T04:59:30;100801.77;;;-0.84;100.00
36964;BME280;22878;48.616;35.326;2023-02-18T05:01:56;100796.27;;;-0.85;100.00
36964;BME280;22878;48.616;35.326;2023-02-18T05:04:21;100786.02;;;-0.84;100.00
36964;BME280;22878;48.616;35.326;2023-02-18T05:06:47;100776.59;;;-0.81;100.00
36964;BME280;22878;48.616;35.326;2023-02-18T05:09:14;100772.89;;;-0.80;100.00
36964;BME280;22878;48.616;35.326;2023-02-18T05:11:40;100774.52;;;-0.77;100.00
36964;BME280;22878;48.616;35.326;2023-02-18T05:14:06;100764.68;;;-0.75;100.00
36964;BME280;22878;48.616;35.326;2023-02-18T05:16:31;100756.55;;;-0.75;100.00
36964;BME280;22878;48.616;35.326;2023-02-18T05:18:57;100750.73;;;-0.70;100.00
36964;BME280;22878;48.616;35.326;2023-02-18T05:21:23;100748.35;;;-0.66;100.00
36964;BME280;22878;48.616;35.326;2023-02-18T05:23:48;100742.98;;;-0.66;100.00
36964;BME280;22878;48.616;35.326;2023-02-18T05:26:14;100747.41;;;-0.63;100.00
36964;BME280;22878;48.616;35.326;2023-02-18T05:28:39;100743.26;;;-0.61;100.00
36964;BME280;22878;48.616;35.326;2023-02-18T05:31:05;100740.48;;;-0.61;100.00
36964;BME280;22878;48.616;35.326;2023-02-18T05:33:30;100733.77;;;-0.58;100.00
36964;BME280;22878;48.616;35.326;2023-02-18T05:35:56;100734.38;;;-0.52;100.00
36964;BME280;22878;48.616;35.326;2023-02-18T05:38:21;100730.52;;;-0.46;100.00
36964;BME280;22878;48.616;35.326;2023-02-18T05:40:47;100728.23;;;-0.41;100.00
36964;BME280;22878;48.616;35.326;2023-02-18T05:43:12;100723.04;;;-0.37;100.00
36964;BME280;22878;48.616;35.326;2023-02-18T05:45:38;100721.59;;;-0.33;100.00
36964;BME280;22878;48.616;35.326;2023-02-18T05:48:04;100714.63;;;-0.29;100.00
36964;BME280;22878;48.616;35.326;2023-02-18T05:50:29;100717.91;;;-0.27;100.00
36964;BME280;22878;48.616;35.326;2023-02-18T05:52:55;100716.30;;;-0.26;100.00
36964;BME280;22878;48.616;35.326;2023-02-18T05:55:21;100715.12;;;-0.25;100.00
36964;BME280;22878;48.616;35.326;2023-02-18T05:57:46;100712.29;;;-0.20;100.00
36964;BME280;22878;48.616;35.326;2023-02-18T06:00:12;100707.23;;;-0.16;100.00
36964;BME280;22878;48.616;35.326;2023-02-18T06:02:38;100698.11;;;-0.13;100.00
36964;BME280;22878;48.616;35.326;2023-02-18T06:05:04;100693.23;;;-0.07;100.00
36964;BME280;22878;48.616;35.326;2023-02-18T06:07:30;100696.84;;;-0.02;100.00
36964;BME280;22878;48.616;35.326;2023-02-18T06:09:56;100691.15;;;-0.04;100.00
36964;BME280;22878;48.616;35.326;2023-02-18T06:12:21;100686.88;;;-0.03;100.00
36964;BME280;22878;48.616;35.326;2023-02-18T06:14:47;100684.65;;;0.01;100.00
36964;BME280;22878;48.616;35.326;2023-02-18T06:17:13;100681.73;;;0.03;100.00
36964;BME280;22878;48.616;35.326;2023-02-18T06:19:38;100675.23;;;0.04;100.00
36964;BME280;22878;48.616;35.326;2023-02-18T06:22:04;100674.47;;;0.06;100.00
36964;BME280;22878;48.616;35.326;2023-02-18T06:24:30;100668.41;;;0.08;100.00
36964;BME280;22878;48.616;35.326;2023-02-18T06:26:56;100661.02;;;0.12;100.00
36964;BME280;22878;48.616;35.326;2023-02-18T06:29:21;100653.88;;;0.15;100.00
36964;BME280;22878;48.616;35.326;2023-02-18T06:31:47;100649.14;;;0.18;100.00
36964;BME280;22878;48.616;35.326;2023-02-18T06:34:13;100643.59;;;0.21;100.00
36964;BME280;22878;48.616;35.326;2023-02-18T06:36:38;100641.15;;;0.22;100.00
36964;BME280;22878;48.616;35.326;2023-02-18T06:39:04;100636.38;;;0.24;100.00
36964;BME280;22878;48.616;35.326;2023-02-18T06:41:30;100628.23;;;0.27;100.00
36964;BME280;22878;48.616;35.326;2023-02-18T06:43:56;100621.71;;;0.30;100.00
36964;BME280;22878;48.616;35.326;2023-02-18T06:46:21;100624.70;;;0.35;100.00
36964;BME280;22878;48.616;35.326;2023-02-18T06:48:47;100621.32;;;0.36;100.00
36964;BME280;22878;48.616;35.326;2023-02-18T06:51:12;100612.25;;;0.38;100.00
36964;BME280;22878;48.616;35.326;2023-02-18T06:53:41;100613.20;;;0.41;100.00
36964;BME280;22878;48.616;35.326;2023-02-18T06:56:06;100605.15;;;0.43;100.00
36964;BME280;22878;48.616;35.326;2023-02-18T06:58:32;100600.89;;;0.48;100.00
36964;BME280;22878;48.616;35.326;2023-02-18T07:00:58;100595.25;;;0.51;100.00
36964;BME280;22878;48.616;35.326;2023-02-18T07:03:23;100595.27;;;0.53;100.00
36964;BME280;22878;48.616;35.326;2023-02-18T07:05:49;100595.57;;;0.58;100.00
36964;BME280;22878;48.616;35.326;2023-02-18T07:08:15;100594.36;;;0.60;100.00
36964;BME280;22878;48.616;35.326;2023-02-18T07:10:41;100597.98;;;0.62;100.00
36964;BME280;22878;48.616;35.326;2023-02-18T07:13:06;100589.71;;;0.65;100.00
36964;BME280;22878;48.616;35.326;2023-02-18T07:15:32;100581.61;;;0.69;100.00
36964;BME280;22878;48.616;35.326;2023-02-18T07:17:57;100573.45;;;0.74;100.00
36964;BME280;22878;48.616;35.326;2023-02-18T07:20:24;100560.85;;;0.78;100.00
36964;BME280;22878;48.616;35.326;2023-02-18T07:22:50;100549.14;;;0.85;100.00
36964;BME280;22878;48.616;35.326;2023-02-18T07:25:16;100543.85;;;0.89;100.00
36964;BME280;22878;48.616;35.326;2023-02-18T07:27:42;100537.71;;;0.94;100.00
36964;BME280;22878;48.616;35.326;2023-02-18T07:30:08;100527.77;;;0.99;100.00
36964;BME280;22878;48.616;35.326;2023-02-18T07:32:34;100510.30;;;1.02;100.00
36964;BME280;22878;48.616;35.326;2023-02-18T07:35:00;100496.73;;;1.08;100.00
36964;BME280;22878;48.616;35.326;2023-02-18T07:37:25;100483.73;;;1.16;100.00
36964;BME280;22878;48.616;35.326;2023-02-18T07:39:51;100469.81;;;1.18;100.00
36964;BME280;22878;48.616;35.326;2023-02-18T07:42:16;100468.02;;;1.23;100.00
36964;BME280;22878;48.616;35.326;2023-02-18T07:44:42;100463.48;;;1.33;100.00
36964;BME280;22878;48.616;35.326;2023-02-18T07:47:10;100457.67;;;1.43;100.00
36964;BME280;22878;48.616;35.326;2023-02-18T07:49:36;100460.30;;;1.57;100.00
36964;BME280;22878;48.616;35.326;2023-02-18T07:52:02;100450.29;;;1.57;100.00
36964;BME280;22878;48.616;35.326;2023-02-18T07:54:28;100443.11;;;1.63;100.00
36964;BME280;22878;48.616;35.326;2023-02-18T07:56:53;100437.02;;;1.67;100.00
36964;BME280;22878;48.616;35.326;2023-02-18T07:59:19;100429.01;;;1.70;100.00
36964;BME280;22878;48.616;35.326;2023-02-18T08:01:45;100420.66;;;1.73;100.00
36964;BME280;22878;48.616;35.326;2023-02-18T08:04:10;100419.23;;;1.70;100.00
36964;BME280;22878;48.616;35.326;2023-02-18T08:06:41;100411.59;;;1.73;100.00
36964;BME280;22878;48.616;35.326;2023-02-18T08:09:07;100404.67;;;1.77;100.00
36964;BME280;22878;48.616;35.326;2023-02-18T08:11:33;100399.54;;;1.73;100.00
36964;BME280;22878;48.616;35.326;2023-02-18T08:13:59;100393.85;;;1.73;100.00
36964;BME280;22878;48.616;35.326;2023-02-18T08:16:25;100389.36;;;1.74;100.00
36964;BME280;22878;48.616;35.326;2023-02-18T08:18:52;100386.09;;;1.74;100.00
36964;BME280;22878;48.616;35.326;2023-02-18T08:21:19;100377.23;;;1.73;100.00
36964;BME280;22878;48.616;35.326;2023-02-18T08:23:45;100368.14;;;1.75;100.00
36964;BME280;22878;48.616;35.326;2023-02-18T08:26:11;100361.81;;;1.79;100.00
36964;BME280;22878;48.616;35.326;2023-02-18T08:28:37;100354.85;;;1.81;100.00
36964;BME280;22878;48.616;35.326;2023-02-18T08:31:03;100349.54;;;1.85;100.00
36964;BME280;22878;48.616;35.326;2023-02-18T08:33:29;100342.52;;;1.94;100.00
36964;BME280;22878;48.616;35.326;2023-02-18T08:35:55;100335.11;;;1.97;100.00
36964;BME280;22878;48.616;35.326;2023-02-18T08:38:21;100332.98;;;2.01;100.00
36964;BME280;22878;48.616;35.326;2023-02-18T08:40:47;100329.33;;;2.01;100.00
36964;BME280;22878;48.616;35.326;2023-02-18T08:43:16;100320.90;;;2.04;100.00
36964;BME280;22878;48.616;35.326;2023-02-18T08:45:43;100313.25;;;2.12;100.00
36964;BME280;22878;48.616;35.326;2023-02-18T08:48:10;100307.22;;;2.19;100.00
36964;BME280;22878;48.616;35.326;2023-02-18T08:50:37;100302.02;;;2.22;100.00
36964;BME280;22878;48.616;35.326;2023-02-18T08:53:03;100298.89;;;2.21;100.00
36964;BME280;22878;48.616;35.326;2023-02-18T08:55:30;100297.10;;;2.21;100.00
36964;BME280;22878;48.616;35.326;2023-02-18T08:57:58;100286.98;;;2.23;100.00
36964;BME280;22878;48.616;35.326;2023-02-18T09:00:24;100280.70;;;2.21;100.00
36964;BME280;22878;48.616;35.326;2023-02-18T09:02:49;100263.39;;;2.23;100.00
36964;BME280;22878;48.616;35.326;2023-02-18T09:05:15;100254.84;;;2.23;100.00
36964;BME280;22878;48.616;35.326;2023-02-18T09:07:41;100241.55;;;2.24;100.00
36964;BME280;22878;48.616;35.326;2023-02-18T09:10:10;100239.63;;;2.25;100.00
36964;BME280;22878;48.616;35.326;2023-02-18T09:12:35;100233.88;;;2.29;100.00
36964;BME280;22878;48.616;35.326;2023-02-18T09:15:02;100228.23;;;2.35;100.00
36964;BME280;22878;48.616;35.326;2023-02-18T09:17:29;100219.84;;;2.42;100.00
36964;BME280;22878;48.616;35.326;2023-02-18T09:19:55;100219.95;;;2.49;100.00
36964;BME280;22878;48.616;35.326;2023-02-18T09:22:21;100206.34;;;2.47;100.00
36964;BME280;22878;48.616;35.326;2023-02-18T09:24:47;100196.86;;;2.45;100.00
36964;BME280;22878;48.616;35.326;2023-02-18T09:27:12;100189.35;;;2.43;100.00
36964;BME280;22878;48.616;35.326;2023-02-18T09:29:39;100178.02;;;2.38;100.00
36964;BME280;22878;48.616;35.326;2023-02-18T09:32:06;100166.19;;;2.40;100.00
36964;BME280;22878;48.616;35.326;2023-02-18T09:34:33;100156.18;;;2.48;100.00
36964;BME280;22878;48.616;35.326;2023-02-18T09:36:59;100145.33;;;2.54;100.00
36964;BME280;22878;48.616;35.326;2023-02-18T09:39:24;100140.44;;;2.52;100.00
36964;BME280;22878;48.616;35.326;2023-02-18T09:41:53;100131.02;;;2.57;100.00
36964;BME280;22878;48.616;35.326;2023-02-18T09:49:29;100109.59;;;2.60;100.00
36964;BME280;22878;48.616;35.326;2023-02-18T09:52:05;100108.09;;;2.58;100.00
36964;BME280;22878;48.616;35.326;2023-02-18T09:54:32;100097.64;;;2.57;100.00
36964;BME280;22878;48.616;35.326;2023-02-18T10:04:18;100061.38;;;2.44;100.00
